Time;durP1;ratioP1;P1;durP2;ratioP2;P2;SDS_P1;SDS_P2;PMS_P1;PMS_P2;Temp;Humidity;BMP_temperature;BMP_pressure;BME280_temperature;BME280_humidity;BME280_pressure;Samples;Min_cycle;Max_cycle;Signal;HPM_P1;HPM_P2
2021/04/11 00:01:27;;;;;;;7.80;5.50;;;3.10;99.90;;;;;;5096494;28;20099;-68
2021/04/11 00:03:58;;;;;;;9.40;5.97;;;3.20;99.90;;;;;;5096410;28;20044;-68
2021/04/11 00:06:31;;;;;;;7.00;4.72;;;3.20;99.90;;;;;;5094869;28;20048;-67
2021/04/11 00:08:58;;;;;;;8.88;6.75;;;3.20;99.90;;;;;;5097053;28;20048;-68
2021/04/11 00:11:29;;;;;;;7.63;4.88;;;3.20;99.90;;;;;;5122216;28;20052;-67
2021/04/11 00:14:07;;;;;;;8.13;5.43;;;3.20;99.90;;;;;;5095497;28;20047;-67
2021/04/11 00:16:38;;;;;;;8.88;6.65;;;3.30;99.90;;;;;;5097235;28;20078;-68
2021/04/11 00:19:06;;;;;;;6.72;5.75;;;3.30;99.90;;;;;;5094838;28;20040;-68
2021/04/11 00:21:32;;;;;;;9.73;6.95;;;3.30;99.90;;;;;;5092640;28;20127;-68
2021/04/11 00:24:03;;;;;;;9.02;6.35;;;3.30;99.90;;;;;;5094029;28;20047;-68
2021/04/11 00:26:37;;;;;;;9.45;5.68;;;3.30;99.90;;;;;;5094304;28;20036;-68
2021/04/11 00:29:05;;;;;;;9.15;5.72;;;3.20;99.90;;;;;;5092980;28;20040;-68
2021/04/11 00:31:41;;;;;;;8.75;5.82;;;3.30;99.90;;;;;;5095136;28;20045;-68
2021/04/11 00:34:09;;;;;;;11.02;6.47;;;3.30;99.90;;;;;;5090927;28;20044;-68
2021/04/11 00:36:37;;;;;;;11.18;5.97;;;3.30;99.90;;;;;;5098061;28;20047;-68
2021/04/11 00:39:06;;;;;;;6.60;5.88;;;3.30;99.90;;;;;;5093195;28;20414;-68
2021/04/11 00:41:48;;;;;;;11.95;5.85;;;3.40;99.90;;;;;;5094619;28;20401;-68
2021/04/11 00:44:27;;;;;;;7.43;4.85;;;3.40;99.90;;;;;;5093070;28;20097;-68
2021/04/11 00:47:01;;;;;;;6.90;5.50;;;3.40;99.90;;;;;;5095924;28;20107;-68
2021/04/11 00:49:50;;;;;;;6.35;5.65;;;3.40;99.90;;;;;;5098933;28;20043;-68
2021/04/11 00:52:19;;;;;;;9.00;6.50;;;3.40;99.90;;;;;;5098177;28;20083;-67
2021/04/11 00:54:45;;;;;;;9.20;5.78;;;3.40;99.90;;;;;;5096965;28;20052;-68
2021/04/11 00:57:13;;;;;;;7.63;5.60;;;3.40;99.90;;;;;;5099782;28;20051;-68
2021/04/11 00:59:39;;;;;;;6.45;5.00;;;3.40;99.90;;;;;;5092040;28;20068;-68
2021/04/11 01:02:07;;;;;;;9.48;5.20;;;3.40;99.90;;;;;;5095733;28;20040;-68
2021/04/11 01:04:33;;;;;;;9.65;5.97;;;3.50;99.90;;;;;;5092056;28;20040;-68
2021/04/11 01:07:03;;;;;;;6.28;5.65;;;3.50;99.90;;;;;;5095634;28;20043;-68
2021/04/11 01:09:32;;;;;;;5.43;4.70;;;3.50;99.90;;;;;;5092955;28;20051;-67
2021/04/11 01:12:00;;;;;;;6.80;5.38;;;3.50;99.90;;;;;;5091227;28;20039;-67
2021/04/11 01:14:28;;;;;;;8.98;5.15;;;3.50;99.90;;;;;;5089883;28;20683;-68
2021/04/11 01:16:55;;;;;;;10.60;6.00;;;3.50;99.90;;;;;;5092053;28;20486;-68
2021/04/11 01:19:35;;;;;;;6.97;5.05;;;3.50;99.90;;;;;;5088091;28;20379;-68
2021/04/11 01:22:26;;;;;;;9.32;5.22;;;3.50;99.90;;;;;;5091214;28;20044;-68
2021/04/11 01:25:08;;;;;;;8.65;5.45;;;3.60;99.90;;;;;;5087140;28;20032;-68
2021/04/11 01:27:36;;;;;;;9.32;4.90;;;3.60;99.90;;;;;;5089842;28;20048;-68
2021/04/11 01:30:26;;;;;;;7.45;4.85;;;3.60;99.90;;;;;;5089769;28;20064;-68
2021/04/11 01:32:52;;;;;;;9.68;4.90;;;3.60;99.90;;;;;;5090974;28;20044;-67
2021/04/11 01:35:22;;;;;;;7.03;4.53;;;3.60;99.90;;;;;;5089417;28;20439;-68
2021/04/11 01:37:50;;;;;;;6.75;4.65;;;3.60;99.90;;;;;;5087741;28;20094;-68
2021/04/11 01:40:20;;;;;;;6.07;4.60;;;3.70;99.90;;;;;;5088965;28;20043;-68
2021/04/11 01:42:46;;;;;;;8.65;5.53;;;3.70;99.90;;;;;;5087623;28;20036;-68
2021/04/11 01:45:14;;;;;;;8.63;5.47;;;3.70;99.90;;;;;;5086408;28;20036;-68
2021/04/11 01:47:40;;;;;;;6.57;5.25;;;3.60;99.90;;;;;;5088525;28;20120;-68
2021/04/11 01:50:11;;;;;;;7.32;6.03;;;3.70;99.90;;;;;;5087872;28;20040;-67
2021/04/11 01:52:38;;;;;;;6.85;5.85;;;3.60;99.90;;;;;;5089810;28;20127;-67
2021/04/11 01:55:05;;;;;;;9.10;6.00;;;3.90;99.90;;;;;;5088927;28;20050;-68
2021/04/11 01:57:33;;;;;;;9.73;6.05;;;3.70;99.90;;;;;;5087938;28;20032;-68
2021/04/11 02:00:21;;;;;;;8.70;6.55;;;3.70;99.90;;;;;;5086961;28;20513;-68
2021/04/11 02:02:46;;;;;;;9.35;5.47;;;3.70;99.90;;;;;;5089175;28;20047;-68
2021/04/11 02:05:15;;;;;;;6.97;4.88;;;3.60;99.90;;;;;;5088376;28;20082;-68
2021/04/11 02:07:42;;;;;;;6.78;4.72;;;3.70;99.90;;;;;;5088917;28;20040;-68
2021/04/11 02:10:09;;;;;;;5.82;4.00;;;3.70;99.90;;;;;;5089164;28;20048;-68
2021/04/11 02:12:36;;;;;;;5.95;4.10;;;3.70;99.90;;;;;;5090337;28;20040;-67
2021/04/11 02:15:16;;;;;;;5.22;4.32;;;3.60;99.90;;;;;;5087208;28;20039;-68
2021/04/11 02:17:41;;;;;;;7.00;4.10;;;3.60;99.90;;;;;;5087889;28;20063;-68
2021/04/11 02:20:11;;;;;;;6.25;4.47;;;3.60;99.90;;;;;;5088130;28;20060;-67
2021/04/11 02:22:39;;;;;;;4.55;4.00;;;3.60;99.90;;;;;;5089356;28;20039;-68
2021/04/11 02:25:07;;;;;;;7.88;4.75;;;3.70;99.90;;;;;;5087614;28;20381;-67
2021/04/11 02:27:33;;;;;;;5.85;3.97;;;3.60;99.90;;;;;;5084179;28;21135;-68
2021/04/11 02:30:04;;;;;;;4.00;3.55;;;3.60;99.90;;;;;;5089001;28;20044;-68
2021/04/11 02:32:30;;;;;;;4.57;3.90;;;3.60;99.90;;;;;;5085076;28;20048;-68
2021/04/11 02:35:00;;;;;;;5.22;3.47;;;3.60;99.90;;;;;;5088941;28;20053;-68
2021/04/11 02:37:30;;;;;;;4.32;3.30;;;3.60;99.90;;;;;;5093697;28;20064;-68
2021/04/11 02:40:01;;;;;;;6.20;3.22;;;3.60;99.90;;;;;;5093173;28;20044;-68
2021/04/11 02:42:34;;;;;;;5.00;2.95;;;3.60;99.90;;;;;;5094174;28;20172;-68
2021/04/11 02:45:16;;;;;;;2.90;2.60;;;3.60;99.90;;;;;;5095478;28;20243;-68
2021/04/11 02:47:46;;;;;;;2.83;1.75;;;3.60;99.90;;;;;;5093313;28;20489;-68
2021/04/11 02:50:14;;;;;;;3.08;1.58;;;3.60;99.90;;;;;;5091965;28;20063;-68
2021/04/11 02:53:01;;;;;;;2.85;2.00;;;3.60;99.90;;;;;;5094534;28;20032;-68
2021/04/11 02:55:35;;;;;;;3.88;1.80;;;3.70;99.90;;;;;;5094384;28;20040;-68
2021/04/11 02:58:02;;;;;;;3.47;1.70;;;3.60;99.90;;;;;;5092234;28;20039;-68
2021/04/11 03:00:34;;;;;;;3.13;1.88;;;3.60;99.90;;;;;;5094324;28;20340;-68
2021/04/11 03:03:01;;;;;;;3.60;2.17;;;3.60;99.90;;;;;;5092919;28;20057;-68
2021/04/11 03:05:29;;;;;;;2.45;2.03;;;3.60;99.90;;;;;;5124660;27;20044;-68
2021/04/11 03:08:02;;;;;;;2.13;1.92;;;3.60;99.90;;;;;;5094219;28;20050;-68
2021/04/11 03:11:04;;;;;;;4.85;1.83;;;3.60;99.90;;;;;;5089482;28;20139;-68
2021/04/11 03:13:32;;;;;;;3.03;2.45;;;3.60;99.90;;;;;;5087743;28;20504;-68
2021/04/11 03:15:59;;;;;;;3.08;2.40;;;3.70;99.90;;;;;;5091767;28;20375;-68
2021/04/11 03:18:26;;;;;;;3.10;1.80;;;3.70;99.90;;;;;;5087320;28;20048;-68
2021/04/11 03:20:53;;;;;;;3.28;1.35;;;3.70;99.90;;;;;;5086388;28;20458;-68
2021/04/11 03:23:20;;;;;;;2.15;1.33;;;3.60;99.90;;;;;;5086478;28;20055;-68
2021/04/11 03:25:46;;;;;;;1.75;1.48;;;3.70;99.90;;;;;;5084692;28;20114;-68
2021/04/11 03:28:22;;;;;;;2.05;1.52;;;3.60;99.90;;;;;;5085203;28;20043;-68
2021/04/11 03:31:04;;;;;;;5.72;1.35;;;3.60;99.90;;;;;;5087602;28;20078;-68
2021/04/11 03:33:35;;;;;;;1.98;0.90;;;3.60;99.90;;;;;;5087851;28;20039;-68
2021/04/11 03:36:02;;;;;;;1.67;1.17;;;3.60;99.90;;;;;;5086298;28;20532;-68
2021/04/11 03:38:32;;;;;;;5.03;1.70;;;3.60;99.90;;;;;;5086543;28;20043;-68
2021/04/11 03:41:00;;;;;;;1.85;1.63;;;3.60;99.90;;;;;;5086861;28;20113;-67
2021/04/11 03:43:32;;;;;;;2.10;1.48;;;3.60;99.90;;;;;;5085546;28;20101;-68
2021/04/11 03:46:03;;;;;;;2.42;1.20;;;3.60;99.90;;;;;;5086018;28;20051;-68
2021/04/11 03:48:35;;;;;;;2.53;1.02;;;3.60;99.90;;;;;;5085660;28;20047;-68
2021/04/11 03:51:15;;;;;;;3.67;0.95;;;3.70;99.90;;;;;;5085310;28;20935;-68
2021/04/11 03:53:47;;;;;;;3.97;1.00;;;3.60;99.90;;;;;;5085852;28;20044;-68
2021/04/11 03:56:17;;;;;;;2.40;1.08;;;3.60;99.90;;;;;;5085606;28;20055;-68
2021/04/11 03:58:48;;;;;;;2.55;0.80;;;3.60;99.90;;;;;;5084223;28;20633;-68
2021/04/11 04:01:24;;;;;;;2.45;0.70;;;3.60;99.90;;;;;;5086745;28;20119;-69
2021/04/11 04:03:56;;;;;;;2.35;0.90;;;3.60;99.90;;;;;;5084548;28;20047;-68
2021/04/11 04:06:29;;;;;;;4.50;1.65;;;3.60;99.90;;;;;;5084865;28;20111;-68
2021/04/11 04:08:54;;;;;;;4.80;1.02;;;3.50;99.90;;;;;;5086452;28;20497;-68
2021/04/11 04:11:44;;;;;;;2.50;1.30;;;3.50;99.90;;;;;;5085408;28;20070;-68
2021/04/11 04:14:22;;;;;;;2.72;1.05;;;3.50;99.90;;;;;;5083909;28;20047;-68
2021/04/11 04:16:53;;;;;;;1.60;0.90;;;3.50;99.90;;;;;;5082200;28;20039;-68
2021/04/11 04:19:46;;;;;;;3.65;1.00;;;3.50;99.90;;;;;;5083112;28;20051;-68
2021/04/11 04:22:25;;;;;;;3.88;1.30;;;3.60;99.90;;;;;;5084397;28;20084;-68
2021/04/11 04:25:17;;;;;;;2.05;0.80;;;3.60;99.90;;;;;;5085522;28;20035;-68
2021/04/11 04:28:20;;;;;;;1.73;0.90;;;3.60;99.90;;;;;;5089230;28;20032;-68
2021/04/11 04:30:53;;;;;;;1.85;0.85;;;3.60;99.90;;;;;;5086840;28;20453;-68
2021/04/11 04:33:22;;;;;;;1.42;0.65;;;3.60;99.90;;;;;;5085151;28;20520;-68
2021/04/11 04:36:02;;;;;;;1.92;0.70;;;3.60;99.90;;;;;;5083975;28;20063;-68
2021/04/11 04:38:57;;;;;;;1.63;1.00;;;3.60;99.90;;;;;;5085397;28;20055;-68
2021/04/11 04:41:32;;;;;;;2.92;0.70;;;3.50;99.90;;;;;;5086494;28;20055;-69
2021/04/11 04:44:08;;;;;;;4.00;0.80;;;3.60;99.90;;;;;;5084435;28;20032;-68
2021/04/11 04:46:57;;;;;;;2.67;0.82;;;3.50;99.90;;;;;;5085728;28;20032;-68
2021/04/11 04:49:46;;;;;;;2.33;1.33;;;3.60;99.90;;;;;;5082663;28;20399;-68
2021/04/11 04:52:17;;;;;;;2.78;0.90;;;3.60;99.90;;;;;;5088336;28;20108;-68
2021/04/11 04:54:47;;;;;;;1.80;1.00;;;3.50;99.90;;;;;;5083173;28;20036;-68
2021/04/11 04:57:18;;;;;;;1.98;0.85;;;3.60;99.90;;;;;;5084802;28;20040;-68
2021/04/11 05:00:15;;;;;;;2.30;0.93;;;3.60;99.90;;;;;;5084859;28;20036;-68
2021/04/11 05:02:55;;;;;;;3.30;0.90;;;3.50;99.90;;;;;;5077546;28;20124;-68
2021/04/11 05:05:22;;;;;;;2.35;0.95;;;3.60;99.90;;;;;;5085722;28;20044;-68
2021/04/11 05:08:26;;;;;;;2.65;1.20;;;3.60;99.90;;;;;;5085669;28;20032;-68
2021/04/11 05:11:18;;;;;;;1.77;1.02;;;3.60;99.90;;;;;;5038577;28;20041;-68
2021/04/11 05:14:13;;;;;;;2.10;0.88;;;3.60;99.90;;;;;;5078064;28;20513;-68
2021/04/11 05:16:48;;;;;;;2.08;0.60;;;3.60;99.90;;;;;;5086594;28;20107;-68
2021/04/11 05:19:19;;;;;;;4.78;0.80;;;3.60;99.90;;;;;;5084896;28;20028;-68
2021/04/11 05:21:49;;;;;;;3.30;1.02;;;3.70;99.90;;;;;;5084299;28;20052;-68
2021/04/11 05:24:26;;;;;;;3.08;0.43;;;3.70;99.90;;;;;;5082962;28;20132;-68
2021/04/11 05:27:03;;;;;;;1.67;0.55;;;3.80;99.90;;;;;;5083394;28;20094;-68
2021/04/11 05:29:43;;;;;;;3.08;0.50;;;3.70;99.90;;;;;;5087258;28;20477;-68
2021/04/11 05:32:11;;;;;;;0.68;0.30;;;3.70;99.90;;;;;;5085448;28;20036;-68
2021/04/11 05:34:37;;;;;;;3.90;0.60;;;3.80;99.90;;;;;;5083050;28;20396;-68
2021/04/11 05:37:31;;;;;;;2.72;0.50;;;3.80;99.90;;;;;;5086561;28;20036;-69
2021/04/11 05:40:06;;;;;;;1.38;0.22;;;3.70;99.90;;;;;;5086771;28;20043;-69
2021/04/11 05:42:55;;;;;;;1.63;0.50;;;3.70;99.90;;;;;;5086397;28;20127;-69
2021/04/11 05:45:23;;;;;;;2.88;0.40;;;3.80;99.90;;;;;;5086724;28;20044;-68
2021/04/11 05:48:07;;;;;;;1.73;0.40;;;3.70;99.90;;;;;;5089036;28;20490;-68
2021/04/11 05:50:46;;;;;;;2.80;0.50;;;3.70;99.90;;;;;;5086945;28;20490;-68
2021/04/11 05:53:21;;;;;;;2.50;0.60;;;3.70;99.90;;;;;;5085476;28;20067;-68
2021/04/11 05:55:53;;;;;;;2.30;0.60;;;3.70;99.90;;;;;;5083644;28;20156;-68
2021/04/11 05:58:24;;;;;;;0.65;0.47;;;3.70;99.90;;;;;;5085880;28;20036;-68
2021/04/11 06:01:01;;;;;;;5.70;1.23;;;3.80;99.90;;;;;;5084353;28;20067;-69
2021/04/11 06:03:28;;;;;;;3.67;0.68;;;3.80;99.90;;;;;;5084847;28;20074;-69
2021/04/11 06:06:05;;;;;;;1.65;0.60;;;3.80;99.90;;;;;;5085213;28;20093;-69
2021/04/11 06:09:03;;;;;;;2.13;0.70;;;3.80;99.90;;;;;;5085927;28;20044;-68
2021/04/11 06:11:44;;;;;;;2.22;0.52;;;3.80;99.90;;;;;;5084668;28;20039;-69
2021/04/11 06:14:19;;;;;;;1.25;0.50;;;3.80;99.90;;;;;;5083640;28;20048;-68
2021/04/11 06:16:46;;;;;;;3.75;0.95;;;3.90;99.90;;;;;;5084555;28;20141;-68
2021/04/11 06:19:11;;;;;;;3.92;0.40;;;3.90;99.90;;;;;;5084986;28;20054;-68
2021/04/11 06:21:49;;;;;;;2.65;0.55;;;3.90;99.90;;;;;;5081632;28;20040;-69
2021/04/11 06:24:19;;;;;;;1.92;0.63;;;3.90;99.90;;;;;;5079273;28;20302;-69
2021/04/11 06:27:29;;;;;;;3.22;0.50;;;3.90;99.90;;;;;;5087027;28;20044;-69
2021/04/11 06:30:19;;;;;;;4.03;0.90;;;3.90;99.90;;;;;;5068241;28;20048;-69
2021/04/11 06:33:09;;;;;;;2.97;0.85;;;4.00;99.90;;;;;;5082333;28;20444;-68
2021/04/11 06:35:45;;;;;;;1.67;0.57;;;4.00;99.90;;;;;;5084544;28;20038;-69
2021/04/11 06:38:15;;;;;;;1.95;0.80;;;4.00;99.90;;;;;;5086525;28;20048;-69
2021/04/11 06:40:41;;;;;;;2.83;0.70;;;4.10;99.90;;;;;;5086493;28;20039;-69
2021/04/11 06:43:31;;;;;;;2.83;0.80;;;4.10;99.90;;;;;;5083433;28;20028;-69
2021/04/11 06:46:06;;;;;;;2.13;0.65;;;4.10;99.90;;;;;;5080350;28;20501;-69
2021/04/11 06:49:00;;;;;;;2.95;0.60;;;4.10;99.90;;;;;;5087863;28;20150;-69
2021/04/11 06:52:24;;;;;;;5.75;0.75;;;4.10;99.90;;;;;;5086850;28;20113;-69
2021/04/11 06:55:29;;;;;;;2.67;0.70;;;4.10;99.90;;;;;;5037012;28;20486;-69
2021/04/11 06:58:20;;;;;;;5.93;1.50;;;4.20;99.90;;;;;;5078831;28;20028;-69
2021/04/11 07:01:08;;;;;;;5.10;1.08;;;4.20;99.90;;;;;;5080265;28;20090;-69
2021/04/11 07:04:14;;;;;;;4.15;0.80;;;4.30;99.90;;;;;;5082502;28;20342;-69
2021/04/11 07:07:02;;;;;;;7.28;0.90;;;4.40;99.90;;;;;;5083408;28;20386;-69
2021/04/11 07:09:30;;;;;;;3.67;0.65;;;4.60;99.90;;;;;;5081773;28;20105;-69
2021/04/11 07:11:56;;;;;;;3.30;0.82;;;4.60;99.90;;;;;;5085027;28;20032;-69
2021/04/11 07:14:59;;;;;;;3.83;1.15;;;4.70;99.90;;;;;;5082077;28;20513;-69
2021/04/11 07:18:02;;;;;;;9.82;0.90;;;4.80;99.90;;;;;;5083203;28;20028;-69
2021/04/11 07:20:53;;;;;;;4.72;0.80;;;4.80;99.90;;;;;;5085077;28;20048;-69
2021/04/11 07:23:38;;;;;;;4.85;0.68;;;4.80;99.90;;;;;;5086012;28;20520;-69
2021/04/11 07:26:31;;;;;;;9.50;0.90;;;4.90;99.90;;;;;;5076905;28;20048;-69
2021/04/11 07:29:22;;;;;;;5.57;0.75;;;5.00;99.90;;;;;;5080551;28;20040;-69
2021/04/11 07:32:01;;;;;;;3.25;0.85;;;5.00;99.90;;;;;;5080223;28;20497;-69
2021/04/11 07:34:47;;;;;;;6.40;0.90;;;4.90;99.90;;;;;;5080462;28;20036;-68
2021/04/11 07:37:21;;;;;;;3.92;0.70;;;4.90;99.90;;;;;;5088445;28;20617;-68
2021/04/11 07:40:09;;;;;;;6.70;0.55;;;4.90;99.90;;;;;;5085328;28;20115;-69
2021/04/11 07:42:47;;;;;;;3.88;0.60;;;4.80;99.90;;;;;;5085223;28;20410;-69
2021/04/11 07:45:23;;;;;;;6.10;0.65;;;4.80;99.90;;;;;;5082613;28;20557;-69
2021/04/11 07:48:13;;;;;;;4.65;0.57;;;4.90;99.90;;;;;;5079775;28;20040;-69
2021/04/11 07:50:59;;;;;;;4.18;0.70;;;4.90;99.90;;;;;;5085187;28;20400;-69
2021/04/11 07:53:44;;;;;;;5.43;0.98;;;4.80;99.90;;;;;;5082102;28;20133;-69
2021/04/11 07:56:31;;;;;;;4.95;1.48;;;4.80;99.90;;;;;;5087107;28;20089;-69
2021/04/11 07:59:16;;;;;;;4.25;0.73;;;4.70;99.90;;;;;;5086818;28;20482;-69
2021/04/11 08:02:00;;;;;;;8.05;0.90;;;4.60;99.90;;;;;;5086970;28;20040;-69
2021/04/11 08:04:31;;;;;;;6.75;0.90;;;5.00;99.90;;;;;;5084831;28;20120;-68
2021/04/11 08:07:28;;;;;;;5.57;0.70;;;4.80;99.90;;;;;;5090250;28;20032;-69
2021/04/11 08:10:22;;;;;;;8.23;1.30;;;4.80;99.90;;;;;;5089735;28;20040;-69
2021/04/11 08:13:09;;;;;;;4.18;0.90;;;4.80;99.90;;;;;;5088389;28;20555;-69
2021/04/11 08:16:04;;;;;;;6.55;2.33;;;5.00;99.90;;;;;;5080695;28;20329;-68
2021/04/11 08:19:34;;;;;;;4.20;1.08;;;5.00;99.90;;;;;;5087241;28;20051;-69
2021/04/11 08:22:44;;;;;;;8.52;1.05;;;5.10;99.90;;;;;;5049959;28;20143;-68
2021/04/11 08:25:20;;;;;;;4.40;1.00;;;5.20;99.90;;;;;;5084717;28;20035;-68
2021/04/11 08:28:24;;;;;;;5.47;0.82;;;5.20;99.90;;;;;;5085809;28;20047;-69
2021/04/11 08:31:23;;;;;;;3.75;0.82;;;5.20;99.90;;;;;;5085604;28;20047;-68
2021/04/11 08:34:14;;;;;;;8.80;0.88;;;5.20;99.90;;;;;;5082858;28;20449;-68
2021/04/11 08:37:04;;;;;;;5.35;0.90;;;5.20;99.90;;;;;;5086506;28;20035;-69
2021/04/11 08:39:54;;;;;;;6.20;0.77;;;5.20;99.90;;;;;;5085751;28;20040;-69
2021/04/11 08:42:29;;;;;;;5.95;0.80;;;5.20;99.90;;;;;;5088092;28;20138;-69
2021/04/11 08:45:09;;;;;;;8.30;0.90;;;5.20;99.90;;;;;;5085880;28;20035;-69
2021/04/11 08:48:13;;;;;;;4.68;0.73;;;5.10;99.90;;;;;;5090206;28;20101;-69
2021/04/11 08:50:48;;;;;;;5.63;0.93;;;5.20;99.90;;;;;;5086879;28;20076;-69
2021/04/11 08:53:32;;;;;;;6.70;0.80;;;5.20;99.90;;;;;;5086480;28;20071;-68
2021/04/11 08:56:18;;;;;;;3.83;0.70;;;5.20;99.90;;;;;;5085830;28;20047;-69
2021/04/11 08:59:00;;;;;;;7.13;1.15;;;5.20;99.90;;;;;;5088442;28;20119;-69
2021/04/11 09:01:48;;;;;;;6.55;2.10;;;5.20;99.90;;;;;;5085287;28;20441;-68
2021/04/11 09:04:32;;;;;;;4.57;1.20;;;5.20;99.90;;;;;;5083410;28;20036;-69
2021/04/11 09:07:01;;;;;;;11.00;1.20;;;5.30;99.90;;;;;;5087981;28;20105;-69
2021/04/11 09:09:38;;;;;;;4.70;0.90;;;5.40;99.90;;;;;;5088447;28;20093;-69
2021/04/11 09:12:26;;;;;;;5.43;0.80;;;5.40;99.90;;;;;;5085210;28;20040;-69
2021/04/11 09:14:51;;;;;;;9.10;1.60;;;5.40;99.90;;;;;;5085799;28;20036;-69
2021/04/11 09:17:57;;;;;;;4.43;0.80;;;5.30;99.90;;;;;;5086974;28;20512;-69
2021/04/11 09:20:41;;;;;;;7.22;1.10;;;5.20;99.90;;;;;;5046559;28;20438;-69
2021/04/11 09:23:41;;;;;;;9.05;1.00;;;5.30;99.90;;;;;;5086516;28;20035;-69
2021/04/11 09:26:30;;;;;;;5.22;1.10;;;5.30;99.90;;;;;;5085470;28;20515;-69
2021/04/11 09:29:04;;;;;;;4.65;0.88;;;5.30;99.90;;;;;;5083384;28;20036;-69
2021/04/11 09:31:50;;;;;;;7.95;0.82;;;5.20;99.90;;;;;;5084176;28;20048;-69
2021/04/11 09:34:30;;;;;;;7.70;0.93;;;5.30;99.90;;;;;;5070802;28;20052;-68
2021/04/11 09:37:26;;;;;;;8.43;0.98;;;5.20;99.90;;;;;;5087069;28;20042;-69
2021/04/11 09:40:29;;;;;;;3.42;0.85;;;5.40;99.90;;;;;;5084482;28;20123;-69
2021/04/11 09:43:19;;;;;;;3.35;0.80;;;5.50;99.90;;;;;;5088114;28;20048;-69
2021/04/11 09:46:15;;;;;;;5.68;1.02;;;5.50;99.90;;;;;;5084864;28;20036;-69
2021/04/11 09:49:16;;;;;;;1.83;0.50;;;5.60;99.90;;;;;;5086366;28;20066;-68
2021/04/11 09:52:07;;;;;;;3.45;0.60;;;5.70;99.90;;;;;;5088122;28;20040;-69
2021/04/11 09:54:44;;;;;;;6.60;1.70;;;6.00;99.90;;;;;;5082306;28;20040;-69
2021/04/11 09:57:32;;;;;;;3.60;0.77;;;5.90;99.90;;;;;;5086600;28;20156;-69
2021/04/11 10:00:21;;;;;;;8.52;1.77;;;6.00;99.90;;;;;;5089088;28;20036;-69
2021/04/11 10:02:55;;;;;;;5.00;0.90;;;6.00;99.90;;;;;;5087562;28;20043;-69
2021/04/11 10:05:39;;;;;;;3.70;0.70;;;6.10;99.90;;;;;;5084369;28;20077;-69
2021/04/11 10:08:40;;;;;;;3.83;0.60;;;6.10;99.90;;;;;;5088821;28;20054;-69
2021/04/11 10:11:42;;;;;;;3.85;0.85;;;6.10;99.90;;;;;;5086809;28;20107;-69
2021/04/11 10:14:32;;;;;;;5.57;0.70;;;6.10;99.90;;;;;;5084736;28;20093;-69
2021/04/11 10:17:02;;;;;;;4.10;0.75;;;6.00;99.90;;;;;;5087204;28;20032;-70
2021/04/11 10:19:55;;;;;;;5.10;1.35;;;6.10;99.90;;;;;;5089363;28;20304;-69
2021/04/11 10:22:44;;;;;;;4.82;1.48;;;6.10;99.30;;;;;;5087725;28;20044;-69
2021/04/11 10:25:20;;;;;;;2.97;0.68;;;6.10;99.40;;;;;;5083940;28;20099;-69
2021/04/11 10:27:45;;;;;;;3.25;0.80;;;6.00;99.30;;;;;;5088973;28;20046;-69
2021/04/11 10:30:15;;;;;;;3.30;0.82;;;6.10;99.60;;;;;;5081607;28;20405;-69
2021/04/11 10:32:46;;;;;;;4.47;0.90;;;6.10;99.30;;;;;;5085420;28;20043;-69
2021/04/11 10:35:16;;;;;;;4.80;0.98;;;6.10;99.20;;;;;;5083068;28;20187;-69
2021/04/11 10:37:58;;;;;;;7.65;1.42;;;6.20;99.40;;;;;;5087287;28;20035;-69
2021/04/11 10:41:08;;;;;;;5.47;0.88;;;6.20;99.50;;;;;;5084987;28;20048;-69
2021/04/11 10:44:00;;;;;;;2.85;0.80;;;6.20;99.40;;;;;;5060744;28;20062;-69
2021/04/11 10:46:57;;;;;;;4.10;0.65;;;6.20;99.90;;;;;;5084032;28;20073;-69
2021/04/11 10:49:32;;;;;;;3.55;0.73;;;6.30;99.80;;;;;;5063394;28;20079;-69
2021/04/11 10:52:31;;;;;;;3.75;0.65;;;6.20;99.30;;;;;;5084880;28;20064;-69
2021/04/11 10:55:18;;;;;;;4.55;0.70;;;6.20;99.50;;;;;;5081171;28;20065;-69
2021/04/11 10:57:47;;;;;;;2.35;0.50;;;6.30;99.50;;;;;;5083779;28;20051;-69
2021/04/11 11:00:13;;;;;;;2.47;0.50;;;6.30;99.70;;;;;;5084422;28;20089;-69
2021/04/11 11:03:13;;;;;;;3.35;0.30;;;6.40;99.10;;;;;;5085911;28;20039;-69
2021/04/11 11:05:57;;;;;;;3.75;0.75;;;6.40;98.60;;;;;;5078819;28;20044;-69
2021/04/11 11:08:23;;;;;;;2.50;0.43;;;6.50;98.90;;;;;;5082398;28;20126;-69
2021/04/11 11:11:08;;;;;;;1.98;0.30;;;6.50;99.00;;;;;;5085946;28;20479;-69
2021/04/11 11:13:51;;;;;;;3.08;0.43;;;6.40;98.60;;;;;;5082079;28;20068;-69
2021/04/11 11:16:54;;;;;;;4.88;0.73;;;6.40;98.80;;;;;;5084054;28;20042;-69
2021/04/11 11:19:49;;;;;;;2.00;0.40;;;6.30;98.90;;;;;;5086814;28;20040;-69
2021/04/11 11:22:43;;;;;;;5.88;0.75;;;6.30;99.10;;;;;;5055917;28;20107;-69
2021/04/11 11:25:39;;;;;;;4.85;0.80;;;6.20;99.50;;;;;;5078696;28;20173;-69
2021/04/11 11:28:23;;;;;;;4.95;0.40;;;6.20;99.90;;;;;;5083299;28;20042;-69
2021/04/11 11:31:12;;;;;;;2.28;0.43;;;6.10;99.90;;;;;;5087505;28;20040;-69
2021/04/11 11:33:47;;;;;;;6.78;0.90;;;6.30;99.90;;;;;;5082611;28;20043;-69
2021/04/11 11:36:16;;;;;;;3.97;0.40;;;6.50;99.90;;;;;;5081043;28;20129;-70
2021/04/11 11:38:53;;;;;;;3.65;0.40;;;6.60;99.90;;;;;;5085243;28;20032;-70
2021/04/11 11:41:35;;;;;;;2.42;0.40;;;6.80;99.90;;;;;;5083383;28;20044;-69
2021/04/11 11:44:08;;;;;;;3.83;0.47;;;6.90;99.40;;;;;;5080677;28;20040;-70
2021/04/11 11:46:42;;;;;;;2.85;0.47;;;6.90;97.90;;;;;;5081845;28;20064;-70
2021/04/11 11:49:14;;;;;;;3.83;0.47;;;7.00;98.60;;;;;;5083336;28;20037;-70
2021/04/11 11:51:58;;;;;;;1.90;0.40;;;7.10;97.40;;;;;;5084019;28;20089;-70
2021/04/11 11:54:43;;;;;;;1.25;0.40;;;7.10;97.80;;;;;;5079311;28;20050;-70
2021/04/11 11:57:12;;;;;;;3.85;0.80;;;7.30;98.00;;;;;;5083781;28;20168;-69
2021/04/11 12:00:13;;;;;;;1.92;0.60;;;7.30;97.40;;;;;;5086475;28;20070;-70
2021/04/11 12:02:48;;;;;;;3.33;0.82;;;7.50;97.60;;;;;;5077266;28;20040;-70
2021/04/11 12:05:26;;;;;;;3.05;0.55;;;7.60;97.30;;;;;;5080702;28;20032;-70
2021/04/11 12:08:23;;;;;;;2.28;0.47;;;7.70;97.10;;;;;;5086331;28;20040;-70
2021/04/11 12:11:19;;;;;;;2.20;0.32;;;7.90;98.20;;;;;;5055737;28;20062;-70
2021/04/11 12:14:06;;;;;;;3.55;0.50;;;8.00;97.30;;;;;;5084215;28;20044;-69
2021/04/11 12:16:40;;;;;;;2.63;0.50;;;8.00;96.20;;;;;;5084491;28;20147;-69
2021/04/11 12:19:20;;;;;;;3.17;0.50;;;7.90;96.40;;;;;;5085151;28;20040;-70
2021/04/11 12:22:08;;;;;;;5.10;0.68;;;7.70;96.20;;;;;;5084769;28;20115;-70
2021/04/11 12:24:47;;;;;;;3.05;0.38;;;7.60;95.70;;;;;;5078821;28;20039;-69
2021/04/11 12:27:15;;;;;;;2.72;0.40;;;7.40;95.50;;;;;;5085777;28;20527;-70
2021/04/11 12:29:49;;;;;;;3.28;0.50;;;7.50;96.80;;;;;;5083263;28;20555;-70
2021/04/11 12:32:28;;;;;;;1.90;0.50;;;7.50;96.30;;;;;;5083848;28;20038;-70
2021/04/11 12:35:16;;;;;;;5.65;0.47;;;7.50;96.10;;;;;;5079667;28;20040;-69
2021/04/11 12:38:05;;;;;;;2.97;0.38;;;7.50;96.50;;;;;;5082315;28;20047;-69
2021/04/11 12:40:49;;;;;;;3.13;0.50;;;7.40;97.00;;;;;;5084116;28;20131;-70
2021/04/11 12:43:50;;;;;;;4.45;0.50;;;7.00;97.00;;;;;;5087271;28;20044;-70
2021/04/11 12:46:39;;;;;;;4.35;0.70;;;6.90;97.40;;;;;;5050741;28;20056;-69
2021/04/11 12:49:42;;;;;;;3.65;0.73;;;6.80;97.90;;;;;;5086079;28;20044;-70
2021/04/11 12:52:17;;;;;;;2.50;0.70;;;6.70;97.90;;;;;;5086675;28;20043;-69
2021/04/11 12:54:50;;;;;;;4.40;0.50;;;6.60;97.80;;;;;;5083280;28;20035;-70
2021/04/11 12:57:23;;;;;;;3.08;0.40;;;6.60;98.20;;;;;;5088959;28;20054;-69
2021/04/11 13:00:08;;;;;;;2.15;0.30;;;6.70;98.10;;;;;;5091497;28;20444;-69
2021/04/11 13:02:36;;;;;;;1.95;0.35;;;6.80;98.50;;;;;;5086381;28;20051;-70
2021/04/11 13:05:09;;;;;;;2.42;0.40;;;6.90;98.40;;;;;;5082150;28;20084;-70
2021/04/11 13:07:47;;;;;;;3.72;0.25;;;7.00;98.30;;;;;;5089139;28;20133;-70
2021/04/11 13:10:40;;;;;;;7.05;1.17;;;7.20;98.30;;;;;;5090116;28;20040;-69
2021/04/11 13:13:23;;;;;;;5.78;0.40;;;7.20;98.10;;;;;;5088719;28;20389;-70
2021/04/11 13:16:14;;;;;;;5.63;0.40;;;7.40;98.20;;;;;;5081831;28;20118;-70
2021/04/11 13:18:50;;;;;;;4.78;0.95;;;7.60;96.60;;;;;;5087479;28;20040;-70
2021/04/11 13:21:21;;;;;;;1.90;0.38;;;7.80;95.60;;;;;;5085900;28;20055;-69
2021/04/11 13:23:56;;;;;;;4.18;0.40;;;7.80;95.40;;;;;;5086143;28;20036;-70
2021/04/11 13:26:28;;;;;;;3.30;0.40;;;7.70;95.40;;;;;;5086472;28;20115;-70
2021/04/11 13:29:15;;;;;;;3.30;0.50;;;7.60;96.00;;;;;;5085853;28;20048;-69
2021/04/11 13:32:01;;;;;;;3.20;0.30;;;7.50;95.80;;;;;;5087883;28;20412;-69
2021/04/11 13:35:20;;;;;;;2.33;0.30;;;7.40;95.90;;;;;;5084325;28;20056;-69
2021/04/11 13:37:54;;;;;;;4.93;1.10;;;7.60;96.80;;;;;;5084732;28;20055;-69
2021/04/11 13:40:24;;;;;;;2.95;0.32;;;7.60;96.30;;;;;;5088597;28;20071;-69
2021/04/11 13:43:29;;;;;;;2.92;0.20;;;7.70;95.50;;;;;;5087669;28;20047;-69
2021/04/11 13:46:07;;;;;;;1.83;0.25;;;7.80;95.40;;;;;;5022150;28;20509;-69
2021/04/11 13:48:59;;;;;;;1.95;0.30;;;7.90;95.60;;;;;;5078559;28;20063;-69
2021/04/11 13:51:52;;;;;;;3.13;0.60;;;8.20;96.20;;;;;;5090106;28;20483;-70
2021/04/11 13:54:41;;;;;;;1.00;0.10;;;8.30;93.60;;;;;;5063906;28;20066;-69
2021/04/11 13:57:15;;;;;;;1.67;0.28;;;8.30;92.60;;;;;;5088193;28;20048;-69
2021/04/11 13:59:44;;;;;;;1.52;0.20;;;8.30;93.20;;;;;;5085215;28;20053;-69
2021/04/11 14:02:27;;;;;;;1.92;0.20;;;8.40;93.70;;;;;;5085304;28;20552;-69
2021/04/11 14:05:06;;;;;;;0.85;0.20;;;8.30;93.20;;;;;;5077672;28;20492;-69